createdAt,value
2022-08-24T00:00:43.496Z,1010.36
2022-08-24T00:01:43.488Z,1010.37
2022-08-24T00:02:43.556Z,1010.38
2022-08-24T00:03:43.460Z,1010.39
2022-08-24T00:04:43.449Z,1010.40
2022-08-24T00:05:43.441Z,1010.41
2022-08-24T00:06:43.433Z,1010.38
2022-08-24T00:07:43.418Z,1010.39
2022-08-24T00:08:43.401Z,1010.35
2022-08-24T00:09:43.394Z,1010.35
2022-08-24T00:10:43.382Z,1010.37
2022-08-24T00:11:43.370Z,1010.36
2022-08-24T00:12:43.357Z,1010.37
2022-08-24T00:13:43.348Z,1010.38
2022-08-24T00:14:43.332Z,1010.40
2022-08-24T00:15:43.315Z,1010.35
2022-08-24T00:16:43.398Z,1010.38
2022-08-24T00:17:43.295Z,1010.38
2022-08-24T00:18:43.284Z,1010.36
2022-08-24T00:19:43.269Z,1010.37
2022-08-24T00:20:45.213Z,1010.36
2022-08-24T00:21:43.248Z,1010.40
2022-08-24T00:22:43.235Z,1010.38
2022-08-24T00:23:43.222Z,1010.37
2022-08-24T00:24:43.208Z,1010.38
2022-08-24T00:25:43.197Z,1010.38
2022-08-24T00:26:43.191Z,1010.37
2022-08-24T00:27:43.174Z,1010.39
2022-08-24T00:28:43.165Z,1010.38
2022-08-24T00:29:43.149Z,1010.38
2022-08-24T00:30:43.141Z,1010.39
2022-08-24T00:31:43.157Z,1010.39
2022-08-24T00:32:43.114Z,1010.39
2022-08-24T00:33:43.108Z,1010.40
2022-08-24T00:34:58.340Z,1010.42
2022-08-24T00:35:43.080Z,1010.42
2022-08-24T00:36:43.062Z,1010.39
2022-08-24T00:37:43.054Z,1010.36
2022-08-24T00:38:43.046Z,1010.41
2022-08-24T00:39:43.059Z,1010.35
2022-08-24T00:40:43.018Z,1010.37
2022-08-24T00:41:43.009Z,1010.35
2022-08-24T00:42:42.995Z,1010.40
2022-08-24T00:43:42.982Z,1010.38
2022-08-24T00:44:42.969Z,1010.43
2022-08-24T00:45:43.027Z,1010.40
2022-08-24T00:46:42.951Z,1010.41
2022-08-24T00:47:42.936Z,1010.40
2022-08-24T00:48:42.925Z,1010.36
2022-08-24T00:49:42.909Z,1010.38
2022-08-24T00:50:42.899Z,1010.43
2022-08-24T00:51:42.882Z,1010.36
2022-08-24T00:52:42.874Z,1010.37
2022-08-24T00:53:42.863Z,1010.44
2022-08-24T00:54:46.144Z,1010.41
2022-08-24T00:55:42.838Z,1010.41
2022-08-24T00:56:42.829Z,1010.44
2022-08-24T00:57:42.864Z,1010.40
2022-08-24T00:58:42.801Z,1010.42
2022-08-24T00:59:42.788Z,1010.44
2022-08-24T01:00:42.826Z,1010.42
2022-08-24T01:01:42.964Z,1010.47
2022-08-24T01:02:42.834Z,1010.46
2022-08-24T01:03:42.736Z,1010.43
2022-08-24T01:04:42.735Z,1010.45
2022-08-24T01:05:42.717Z,1010.48
2022-08-24T01:06:42.697Z,1010.48
2022-08-24T01:07:42.689Z,1010.46
2022-08-24T01:08:42.679Z,1010.47
2022-08-24T01:09:42.662Z,1010.50
2022-08-24T01:10:42.651Z,1010.49
2022-08-24T01:11:42.641Z,1010.48
2022-08-24T01:12:42.629Z,1010.48
2022-08-24T01:13:42.619Z,1010.46
2022-08-24T01:14:42.605Z,1010.45
2022-08-24T01:15:42.599Z,1010.45
2022-08-24T01:16:42.633Z,1010.47
2022-08-24T01:17:42.567Z,1010.47
2022-08-24T01:18:42.557Z,1010.45
2022-08-24T01:19:42.546Z,1010.47
2022-08-24T01:20:42.530Z,1010.48
2022-08-24T01:21:42.519Z,1010.47
2022-08-24T01:22:42.506Z,1010.49
2022-08-24T01:23:42.490Z,1010.48
2022-08-24T01:24:42.484Z,1010.49
2022-08-24T01:25:42.467Z,1010.50
2022-08-24T01:26:42.454Z,1010.46
2022-08-24T01:27:42.445Z,1010.44
2022-08-24T01:28:42.433Z,1010.45
2022-08-24T01:29:42.422Z,1010.40
2022-08-24T01:30:42.412Z,1010.44
2022-08-24T01:31:42.470Z,1010.45
2022-08-24T01:32:42.391Z,1010.40
2022-08-24T01:33:42.370Z,1010.39
2022-08-24T01:34:42.358Z,1010.41
2022-08-24T01:35:42.345Z,1010.38
2022-08-24T01:36:42.332Z,1010.41
2022-08-24T01:37:42.319Z,1010.40
2022-08-24T01:38:42.308Z,1010.41
2022-08-24T01:39:42.339Z,1010.41
2022-08-24T01:40:42.285Z,1010.38
2022-08-24T01:41:42.268Z,1010.37
2022-08-24T01:42:42.258Z,1010.39
2022-08-24T01:43:42.244Z,1010.41
2022-08-24T01:44:42.233Z,1010.41
2022-08-24T01:45:42.221Z,1010.42
2022-08-24T01:46:42.289Z,1010.44
2022-08-24T01:47:42.192Z,1010.44
2022-08-24T01:48:42.182Z,1010.42
2022-08-24T01:49:42.172Z,1010.41
2022-08-24T01:50:42.154Z,1010.43
2022-08-24T01:51:42.144Z,1010.41
2022-08-24T01:53:03.972Z,1010.44
2022-08-24T01:53:42.117Z,1010.46
2022-08-24T01:54:43.395Z,1010.45
2022-08-24T01:55:42.095Z,1010.40
2022-08-24T01:56:42.082Z,1010.46
2022-08-24T01:57:42.070Z,1010.48
2022-08-24T01:58:42.054Z,1010.49
2022-08-24T01:59:42.042Z,1010.47
2022-08-24T02:00:42.035Z,1010.49
2022-08-24T02:01:42.075Z,1010.45
2022-08-24T02:02:42.078Z,1010.45
2022-08-24T02:03:41.993Z,1010.47
2022-08-24T02:04:41.983Z,1010.44
2022-08-24T02:05:41.968Z,1010.45
2022-08-24T02:06:41.964Z,1010.47
2022-08-24T02:07:41.945Z,1010.50
2022-08-24T02:08:41.938Z,1010.45
2022-08-24T02:09:41.919Z,1010.47
2022-08-24T02:10:41.910Z,1010.48
2022-08-24T02:11:41.898Z,1010.52
2022-08-24T02:12:41.879Z,1010.54
2022-08-24T02:13:41.869Z,1010.52
2022-08-24T02:14:41.856Z,1010.53
2022-08-24T02:15:41.870Z,1010.54
2022-08-24T02:16:41.834Z,1010.51
2022-08-24T02:17:41.822Z,1010.54
2022-08-24T02:18:41.808Z,1010.52
2022-08-24T02:19:41.797Z,1010.55
2022-08-24T02:20:41.782Z,1010.53
2022-08-24T02:21:41.773Z,1010.52
2022-08-24T02:22:41.758Z,1010.53
2022-08-24T02:23:41.746Z,1010.54
2022-08-24T02:24:41.733Z,1010.57
2022-08-24T02:25:41.720Z,1010.54
2022-08-24T02:26:41.708Z,1010.56
2022-08-24T02:27:41.695Z,1010.55
2022-08-24T02:28:41.684Z,1010.58
2022-08-24T02:29:41.672Z,1010.59
2022-08-24T02:30:41.752Z,1010.57
2022-08-24T02:31:41.641Z,1010.62
2022-08-24T02:32:41.635Z,1010.65
2022-08-24T02:33:41.622Z,1010.64
2022-08-24T02:34:41.603Z,1010.60
2022-08-24T02:35:41.588Z,1010.60
2022-08-24T02:36:41.587Z,1010.61
2022-08-24T02:37:43.434Z,1010.64
2022-08-24T02:38:41.555Z,1010.63
2022-08-24T02:39:41.545Z,1010.63
2022-08-24T02:40:41.532Z,1010.67
2022-08-24T02:41:41.519Z,1010.63
2022-08-24T02:42:41.503Z,1010.64
2022-08-24T02:43:41.493Z,1010.64
2022-08-24T02:44:41.483Z,1010.61
2022-08-24T02:45:41.464Z,1010.63
2022-08-24T02:46:41.514Z,1010.66
2022-08-24T02:47:41.433Z,1010.63
2022-08-24T02:48:41.428Z,1010.65
2022-08-24T02:49:41.412Z,1010.64
2022-08-24T02:50:41.404Z,1010.61
2022-08-24T02:51:45.060Z,1010.66
2022-08-24T02:52:41.376Z,1010.65
2022-08-24T02:53:41.366Z,1010.67
2022-08-24T02:54:41.349Z,1010.67
2022-08-24T02:55:41.339Z,1010.68
2022-08-24T02:56:41.324Z,1010.67
2022-08-24T02:57:41.306Z,1010.64
2022-08-24T02:58:41.303Z,1010.65
2022-08-24T02:59:41.289Z,1010.67
2022-08-24T03:00:41.273Z,1010.67
2022-08-24T03:01:41.365Z,1010.66
2022-08-24T03:02:41.299Z,1010.68
2022-08-24T03:03:41.236Z,1010.65
2022-08-24T03:04:41.221Z,1010.66
2022-08-24T03:05:41.210Z,1010.66
2022-08-24T03:06:41.191Z,1010.64
2022-08-24T03:07:41.183Z,1010.64
2022-08-24T03:08:41.170Z,1010.61
2022-08-24T03:09:41.161Z,1010.62
2022-08-24T03:10:41.144Z,1010.63
2022-08-24T03:11:45.311Z,1010.59
2022-08-24T03:12:41.116Z,1010.62
2022-08-24T03:13:41.102Z,1010.58
2022-08-24T03:14:41.090Z,1010.63
2022-08-24T03:15:41.102Z,1010.59
2022-08-24T03:16:41.071Z,1010.65
2022-08-24T03:17:41.136Z,1010.62
2022-08-24T03:18:41.042Z,1010.63
2022-08-24T03:19:41.031Z,1010.59
2022-08-24T03:20:41.021Z,1010.59
2022-08-24T03:21:41.001Z,1010.59
2022-08-24T03:22:40.989Z,1010.58
2022-08-24T03:23:40.975Z,1010.58
2022-08-24T03:24:40.959Z,1010.56
2022-08-24T03:25:40.955Z,1010.57
2022-08-24T03:26:44.061Z,1010.55
2022-08-24T03:27:40.925Z,1010.55
2022-08-24T03:28:40.911Z,1010.55
2022-08-24T03:29:40.901Z,1010.51
2022-08-24T03:30:42.054Z,1010.51
2022-08-24T03:31:40.873Z,1010.53
2022-08-24T03:32:40.852Z,1010.55
2022-08-24T03:33:40.845Z,1010.53
2022-08-24T03:34:40.828Z,1010.55
2022-08-24T03:35:40.821Z,1010.53
2022-08-24T03:36:40.808Z,1010.56
2022-08-24T03:37:40.796Z,1010.54
2022-08-24T03:38:40.780Z,1010.51
2022-08-24T03:39:40.769Z,1010.50
2022-08-24T03:40:40.754Z,1010.51
2022-08-24T03:41:40.744Z,1010.52
2022-08-24T03:42:40.724Z,1010.56
2022-08-24T03:43:40.719Z,1010.51
2022-08-24T03:44:40.699Z,1010.54
2022-08-24T03:45:40.722Z,1010.54
2022-08-24T03:46:40.677Z,1010.58
2022-08-24T03:47:40.666Z,1010.57
2022-08-24T03:48:40.652Z,1010.51
2022-08-24T03:49:40.635Z,1010.53
2022-08-24T03:50:40.626Z,1010.58
2022-08-24T03:51:40.604Z,1010.54
2022-08-24T03:52:40.599Z,1010.54
2022-08-24T03:53:42.936Z,1010.53
2022-08-24T03:54:40.572Z,1010.52
2022-08-24T03:55:40.559Z,1010.56
2022-08-24T03:56:40.543Z,1010.59
2022-08-24T03:57:40.534Z,1010.60
2022-08-24T03:58:40.520Z,1010.59
2022-08-24T03:59:46.171Z,1010.62
2022-08-24T04:00:40.489Z,1010.62
2022-08-24T04:01:40.587Z,1010.61
2022-08-24T04:02:40.509Z,1010.62
2022-08-24T04:03:40.458Z,1010.61
2022-08-24T04:04:40.437Z,1010.62
2022-08-24T04:05:40.427Z,1010.61
2022-08-24T04:06:40.414Z,1010.63
2022-08-24T04:07:40.408Z,1010.60
2022-08-24T04:08:40.386Z,1010.62
2022-08-24T04:09:40.378Z,1010.62
2022-08-24T04:10:40.353Z,1010.62
2022-08-24T04:11:41.465Z,1010.62
2022-08-24T04:12:40.345Z,1010.66
2022-08-24T04:13:40.330Z,1010.66
2022-08-24T04:14:40.306Z,1010.67
2022-08-24T04:15:40.299Z,1010.69
2022-08-24T04:16:40.444Z,1010.67
2022-08-24T04:17:40.277Z,1010.71
2022-08-24T04:18:40.261Z,1010.70
2022-08-24T04:19:40.238Z,1010.70
2022-08-24T04:20:40.224Z,1010.71
2022-08-24T04:21:40.214Z,1010.73
2022-08-24T04:22:40.200Z,1010.78
2022-08-24T04:23:47.314Z,1010.75
2022-08-24T04:24:40.168Z,1010.76
2022-08-24T04:25:40.158Z,1010.73
2022-08-24T04:26:44.256Z,1010.75
2022-08-24T04:27:40.142Z,1010.77
2022-08-24T04:28:40.119Z,1010.77
2022-08-24T04:29:40.107Z,1010.79
2022-08-24T04:30:40.090Z,1010.80
2022-08-24T04:31:40.186Z,1010.79
2022-08-24T04:32:40.064Z,1010.79
2022-08-24T04:33:40.053Z,1010.79
2022-08-24T04:34:40.034Z,1010.76
2022-08-24T04:35:40.026Z,1010.77
2022-08-24T04:36:40.011Z,1010.76
2022-08-24T04:37:39.994Z,1010.75
2022-08-24T04:38:39.980Z,1010.77
2022-08-24T04:39:39.969Z,1010.77
2022-08-24T04:40:39.959Z,1010.79
2022-08-24T04:41:39.945Z,1010.82
2022-08-24T04:42:39.928Z,1010.82
2022-08-24T04:43:39.915Z,1010.82
2022-08-24T04:44:39.902Z,1010.83
2022-08-24T04:45:39.953Z,1010.83
2022-08-24T04:46:39.875Z,1010.82
2022-08-24T04:47:39.861Z,1010.86
2022-08-24T04:48:39.845Z,1010.89
2022-08-24T04:49:39.831Z,1010.87
2022-08-24T04:50:39.819Z,1010.86
2022-08-24T04:51:39.807Z,1010.87
2022-08-24T04:52:39.794Z,1010.89
2022-08-24T04:53:39.781Z,1010.91
2022-08-24T04:54:39.765Z,1010.91
2022-08-24T04:55:39.753Z,1010.92
2022-08-24T04:56:39.736Z,1010.94
2022-08-24T04:57:39.723Z,1010.92
2022-08-24T04:58:39.710Z,1010.93
2022-08-24T04:59:39.695Z,1010.97
2022-08-24T05:00:39.747Z,1010.96
2022-08-24T05:01:39.675Z,1010.95
2022-08-24T05:02:44.229Z,1010.98
2022-08-24T05:03:39.639Z,1011.00
2022-08-24T05:04:39.627Z,1010.99
2022-08-24T05:05:39.617Z,1010.97
2022-08-24T05:06:39.601Z,1011.04
2022-08-24T05:07:39.584Z,1011.01
2022-08-24T05:08:39.573Z,1011.05
2022-08-24T05:09:39.564Z,1011.05
2022-08-24T05:10:39.550Z,1011.06
2022-08-24T05:11:39.533Z,1011.09
2022-08-24T05:12:39.517Z,1011.08
2022-08-24T05:13:39.506Z,1011.08
2022-08-24T05:14:39.499Z,1011.09
2022-08-24T05:15:39.479Z,1011.12
2022-08-24T05:16:39.606Z,1011.11
2022-08-24T05:17:39.454Z,1011.12
2022-08-24T05:18:39.440Z,1011.10
2022-08-24T05:19:39.423Z,1011.12
2022-08-24T05:20:39.412Z,1011.14
2022-08-24T05:21:40.123Z,1011.16
2022-08-24T05:22:39.384Z,1011.14
2022-08-24T05:23:39.371Z,1011.14
2022-08-24T05:24:39.358Z,1011.15
2022-08-24T05:25:39.339Z,1011.14
2022-08-24T05:26:39.328Z,1011.10
2022-08-24T05:27:39.312Z,1011.12
2022-08-24T05:28:39.303Z,1011.15
2022-08-24T05:29:39.292Z,1011.12
2022-08-24T05:30:42.450Z,1011.13
2022-08-24T05:31:39.339Z,1011.07
2022-08-24T05:32:39.259Z,1011.08
2022-08-24T05:33:39.231Z,1011.10
2022-08-24T05:34:39.230Z,1011.09
2022-08-24T05:35:39.214Z,1011.14
2022-08-24T05:36:39.199Z,1011.13
2022-08-24T05:37:39.179Z,1011.15
2022-08-24T05:38:39.186Z,1011.17
2022-08-24T05:39:39.159Z,1011.19
2022-08-24T05:40:39.145Z,1011.18
2022-08-24T05:41:39.133Z,1011.19
2022-08-24T05:42:39.115Z,1011.23
2022-08-24T05:43:39.102Z,1011.23
2022-08-24T05:44:39.088Z,1011.26
2022-08-24T05:45:39.076Z,1011.31
2022-08-24T05:46:39.137Z,1011.31
2022-08-24T05:47:39.050Z,1011.31
2022-08-24T05:48:39.034Z,1011.33
2022-08-24T05:49:41.521Z,1011.31
2022-08-24T05:50:39.003Z,1011.29
2022-08-24T05:51:38.991Z,1011.29
2022-08-24T05:52:38.980Z,1011.29
2022-08-24T05:53:38.968Z,1011.29
2022-08-24T05:54:38.955Z,1011.28
2022-08-24T05:55:38.940Z,1011.27
2022-08-24T05:56:38.923Z,1011.29
2022-08-24T05:57:38.913Z,1011.29
2022-08-24T05:58:38.901Z,1011.32
2022-08-24T05:59:38.888Z,1011.31
2022-08-24T06:00:38.875Z,1011.35
2022-08-24T06:01:43.369Z,1011.34
2022-08-24T06:02:38.958Z,1011.35
2022-08-24T06:03:38.833Z,1011.33
2022-08-24T06:04:38.814Z,1011.34
2022-08-24T06:05:38.801Z,1011.39
2022-08-24T06:06:38.792Z,1011.39
2022-08-24T06:07:38.778Z,1011.41
2022-08-24T06:08:41.504Z,1011.42
2022-08-24T06:09:38.753Z,1011.43
2022-08-24T06:10:38.769Z,1011.42
2022-08-24T06:11:38.724Z,1011.44
2022-08-24T06:12:38.712Z,1011.45
2022-08-24T06:13:38.698Z,1011.45
2022-08-24T06:14:38.686Z,1011.41
2022-08-24T06:15:38.669Z,1011.44
2022-08-24T06:16:38.763Z,1011.44
2022-08-24T06:17:38.858Z,1011.44
2022-08-24T06:18:38.627Z,1011.45
2022-08-24T06:19:38.616Z,1011.44
2022-08-24T06:20:38.606Z,1011.48
2022-08-24T06:21:38.593Z,1011.48
2022-08-24T06:22:38.580Z,1011.51
2022-08-24T06:23:38.565Z,1011.53
2022-08-24T06:24:38.556Z,1011.54
2022-08-24T06:25:38.539Z,1011.54
2022-08-24T06:26:38.529Z,1011.53
2022-08-24T06:27:38.512Z,1011.55
2022-08-24T06:28:38.498Z,1011.58
2022-08-24T06:29:38.497Z,1011.58
2022-08-24T06:30:38.472Z,1011.58
2022-08-24T06:31:39.989Z,1011.61
2022-08-24T06:32:38.449Z,1011.59
2022-08-24T06:33:38.434Z,1011.61
2022-08-24T06:34:38.418Z,1011.61
2022-08-24T06:35:38.407Z,1011.61
2022-08-24T06:36:39.248Z,1011.62
2022-08-24T06:37:38.383Z,1011.60
2022-08-24T06:38:38.369Z,1011.63
2022-08-24T06:39:38.356Z,1011.66
2022-08-24T06:40:38.353Z,1011.65
2022-08-24T06:41:38.332Z,1011.67
2022-08-24T06:42:38.316Z,1011.70
2022-08-24T06:43:38.303Z,1011.67
2022-08-24T06:44:38.292Z,1011.73
2022-08-24T06:45:38.279Z,1011.73
2022-08-24T06:46:38.310Z,1011.71
2022-08-24T06:47:38.254Z,1011.74
2022-08-24T06:48:38.243Z,1011.75
2022-08-24T06:49:38.228Z,1011.77
2022-08-24T06:50:38.212Z,1011.78
2022-08-24T06:51:38.206Z,1011.77
2022-08-24T06:52:38.194Z,1011.80
2022-08-24T06:53:38.181Z,1011.88
2022-08-24T06:54:38.167Z,1011.92
2022-08-24T06:55:38.157Z,1012.04
2022-08-24T06:56:38.147Z,1012.05
2022-08-24T06:57:38.135Z,1012.09
2022-08-24T06:58:38.130Z,1012.13
2022-08-24T06:59:38.112Z,1012.17
2022-08-24T07:00:38.101Z,1012.17
2022-08-24T07:01:38.160Z,1012.24
2022-08-24T07:02:38.155Z,1012.24
2022-08-24T07:03:38.067Z,1012.26
2022-08-24T07:04:38.073Z,1012.27
2022-08-24T07:05:38.053Z,1012.35
2022-08-24T07:06:38.041Z,1012.28
2022-08-24T07:07:38.029Z,1012.29
2022-08-24T07:08:38.027Z,1012.34
2022-08-24T07:09:38.014Z,1012.26
2022-08-24T07:10:38.007Z,1012.19
2022-08-24T07:11:38.000Z,1012.15
2022-08-24T07:12:38.001Z,1012.12
2022-08-24T07:13:37.985Z,1012.06
2022-08-24T07:14:37.981Z,1012.10
2022-08-24T07:15:38.065Z,1012.13
2022-08-24T07:16:37.973Z,1012.14
2022-08-24T07:17:37.967Z,1012.17
2022-08-24T07:18:37.962Z,1012.16
2022-08-24T07:19:37.970Z,1012.18
2022-08-24T07:20:37.954Z,1012.20
2022-08-24T07:21:37.947Z,1012.18
2022-08-24T07:22:37.947Z,1012.17
2022-08-24T07:23:41.840Z,1012.15
2022-08-24T07:24:37.932Z,1012.21
2022-08-24T07:25:37.934Z,1012.20
2022-08-24T07:26:37.940Z,1012.19
2022-08-24T07:27:37.932Z,1012.21
2022-08-24T07:28:37.926Z,1012.26
2022-08-24T07:29:50.518Z,1012.41
2022-08-24T07:30:37.937Z,1012.50
2022-08-24T07:31:38.046Z,1012.59
2022-08-24T07:32:37.921Z,1012.56
2022-08-24T07:33:37.927Z,1012.61
2022-08-24T07:34:37.918Z,1012.62
2022-08-24T07:35:37.917Z,1012.61
2022-08-24T07:36:42.261Z,1012.61
2022-08-24T07:37:41.239Z,1012.62
2022-08-24T07:38:37.918Z,1012.56
2022-08-24T07:39:37.921Z,1012.51
2022-08-24T07:41:01.736Z,1012.53
2022-08-24T07:41:56.791Z,1012.37
2022-08-24T07:42:37.919Z,1012.68
2022-08-24T07:43:40.933Z,1012.61
2022-08-24T07:44:37.919Z,1012.65
2022-08-24T07:45:37.922Z,1012.63
2022-08-24T07:46:38.012Z,1012.66
2022-08-24T07:47:41.672Z,1012.68
2022-08-24T07:48:37.922Z,1012.69
2022-08-24T07:49:39.547Z,1012.74
2022-08-24T07:50:37.927Z,1012.74
2022-08-24T07:51:37.985Z,1012.74
2022-08-24T07:52:37.935Z,1012.78
2022-08-24T07:53:52.996Z,1012.80
2022-08-24T07:54:37.936Z,1012.81
2022-08-24T07:55:45.892Z,1012.77
2022-08-24T07:56:37.936Z,1012.76
2022-08-24T07:57:37.945Z,1012.76
2022-08-24T07:58:37.954Z,1012.73
2022-08-24T07:59:37.964Z,1012.80
2022-08-24T08:00:37.951Z,1012.80
2022-08-24T08:01:38.010Z,1012.80
2022-08-24T08:02:37.989Z,1012.81
2022-08-24T08:03:37.960Z,1012.81
2022-08-24T08:04:37.969Z,1012.81
2022-08-24T08:05:37.972Z,1012.84
2022-08-24T08:06:37.974Z,1012.81
2022-08-24T08:07:37.989Z,1012.86
2022-08-24T08:08:37.986Z,1012.87
2022-08-24T08:09:37.988Z,1012.84
2022-08-24T08:10:37.991Z,1012.90
2022-08-24T08:11:37.997Z,1012.87
2022-08-24T08:12:38.002Z,1012.73
2022-08-24T08:13:38.089Z,1012.76
2022-08-24T08:14:38.010Z,1012.82
2022-08-24T08:15:38.050Z,1012.85
2022-08-24T08:16:38.021Z,1012.88
2022-08-24T08:17:38.027Z,1012.81
2022-08-24T08:18:38.024Z,1012.95
2022-08-24T08:19:38.033Z,1012.84
2022-08-24T08:20:38.042Z,1012.82
2022-08-24T08:21:38.049Z,1012.93
2022-08-24T08:22:38.048Z,1012.98
2022-08-24T08:23:38.052Z,1012.98
2022-08-24T08:24:38.070Z,1012.99
2022-08-24T08:25:38.065Z,1012.99
2022-08-24T08:26:38.069Z,1012.99
2022-08-24T08:27:38.097Z,1013.00
2022-08-24T08:28:38.269Z,1012.99
2022-08-24T08:29:38.087Z,1012.99
2022-08-24T08:30:38.145Z,1012.99
2022-08-24T08:31:38.103Z,1012.95
2022-08-24T08:32:38.104Z,1012.99
2022-08-24T08:33:38.109Z,1013.03
2022-08-24T08:34:38.120Z,1013.01
2022-08-24T08:35:38.122Z,1013.02
2022-08-24T08:36:38.134Z,1012.95
2022-08-24T08:37:38.154Z,1012.98
2022-08-24T08:38:38.153Z,1012.99
2022-08-24T08:39:38.146Z,1012.96
2022-08-24T08:40:38.154Z,1012.96
2022-08-24T08:41:38.161Z,1012.95
2022-08-24T08:42:38.167Z,1012.94
2022-08-24T08:43:38.174Z,1012.94
2022-08-24T08:44:38.182Z,1012.98
2022-08-24T08:45:38.186Z,1012.12
2022-08-24T08:46:40.841Z,1012.20
2022-08-24T08:47:38.196Z,1012.27
2022-08-24T08:48:38.202Z,1012.34
2022-08-24T08:49:38.208Z,1012.38
2022-08-24T08:50:38.209Z,1012.37
2022-08-24T08:51:38.215Z,1012.40
2022-08-24T08:52:38.216Z,1012.44
2022-08-24T08:53:38.221Z,1012.47
2022-08-24T08:54:38.218Z,1012.47
2022-08-24T08:55:38.230Z,1012.49
2022-08-24T08:56:38.225Z,1012.47
2022-08-24T08:57:38.229Z,1012.46
2022-08-24T08:58:38.228Z,1012.46
2022-08-24T08:59:38.227Z,1012.50
2022-08-24T09:00:38.227Z,1012.50
2022-08-24T09:01:46.461Z,1012.53
2022-08-24T09:02:38.226Z,1012.54
2022-08-24T09:03:38.222Z,1012.52
2022-08-24T09:04:38.361Z,1012.54
2022-08-24T09:05:38.223Z,1012.52
2022-08-24T09:06:38.227Z,1012.53
2022-08-24T09:07:38.225Z,1012.50
2022-08-24T09:08:38.214Z,1012.54
2022-08-24T09:09:38.212Z,1012.48
2022-08-24T09:10:38.209Z,1012.49
2022-08-24T09:11:38.202Z,1012.50
2022-08-24T09:12:38.199Z,1012.47
2022-08-24T09:13:38.201Z,1012.44
2022-08-24T09:14:38.196Z,1012.45
2022-08-24T09:15:38.192Z,1012.45
2022-08-24T09:16:38.273Z,1012.41
2022-08-24T09:17:38.181Z,1012.44
2022-08-24T09:18:38.192Z,1012.51
2022-08-24T09:19:38.173Z,1012.50
2022-08-24T09:20:38.171Z,1012.46
2022-08-24T09:21:38.166Z,1012.44
2022-08-24T09:22:38.162Z,1012.42
2022-08-24T09:23:38.157Z,1012.43
2022-08-24T09:24:38.151Z,1012.45
2022-08-24T09:25:38.146Z,1012.47
2022-08-24T09:26:38.149Z,1012.45
2022-08-24T09:27:38.134Z,1012.43
2022-08-24T09:28:38.138Z,1012.40
2022-08-24T09:29:38.125Z,1012.39
2022-08-24T09:30:38.164Z,1012.39
2022-08-24T09:31:38.116Z,1012.35
2022-08-24T09:32:39.229Z,1012.36
2022-08-24T09:33:38.106Z,1012.33
2022-08-24T09:34:38.100Z,1012.33
2022-08-24T09:35:38.102Z,1012.30
2022-08-24T09:36:38.088Z,1012.31
2022-08-24T09:37:41.725Z,1012.28
2022-08-24T09:38:38.077Z,1012.22
2022-08-24T09:39:38.071Z,1012.24
2022-08-24T09:40:38.076Z,1012.25
2022-08-24T09:41:38.059Z,1012.25
2022-08-24T09:42:38.050Z,1012.25
2022-08-24T09:43:38.051Z,1012.23
2022-08-24T09:44:38.044Z,1012.29
2022-08-24T09:45:38.091Z,1012.29
2022-08-24T09:46:38.028Z,1012.31
2022-08-24T09:47:38.022Z,1012.27
2022-08-24T09:48:38.020Z,1012.27
2022-08-24T09:49:38.010Z,1012.27
2022-08-24T09:50:38.003Z,1012.27
2022-08-24T09:51:38.000Z,1012.28
2022-08-24T09:52:37.994Z,1012.27
2022-08-24T09:53:37.988Z,1012.28
2022-08-24T09:54:37.980Z,1012.30
2022-08-24T09:55:37.975Z,1012.27
2022-08-24T09:56:37.974Z,1012.27
2022-08-24T09:57:59.477Z,1012.30
2022-08-24T09:58:37.959Z,1012.29
2022-08-24T09:59:37.952Z,1012.26
2022-08-24T10:00:37.946Z,1012.27
2022-08-24T10:01:37.991Z,1012.30
2022-08-24T10:02:38.023Z,1012.29
2022-08-24T10:03:38.760Z,1012.24
2022-08-24T10:04:38.052Z,1012.22
2022-08-24T10:05:38.015Z,1012.25
2022-08-24T10:06:37.909Z,1012.25
2022-08-24T10:07:37.907Z,1012.25
2022-08-24T10:08:37.905Z,1012.26
2022-08-24T10:09:37.900Z,1012.24
2022-08-24T10:10:37.888Z,1012.26
2022-08-24T10:11:37.881Z,1012.21
2022-08-24T10:12:37.878Z,1012.16
2022-08-24T10:13:37.869Z,1012.16
2022-08-24T10:14:37.859Z,1012.18
2022-08-24T10:15:37.856Z,1012.19
2022-08-24T10:16:37.915Z,1012.15
2022-08-24T10:17:37.846Z,1012.18
2022-08-24T10:18:37.839Z,1012.15
2022-08-24T10:19:37.834Z,1012.16
2022-08-24T10:20:37.827Z,1012.10
2022-08-24T10:21:37.821Z,1012.13
2022-08-24T10:22:37.811Z,1012.13
2022-08-24T10:23:37.813Z,1012.11
2022-08-24T10:24:37.806Z,1012.15
2022-08-24T10:25:37.800Z,1012.13
2022-08-24T10:26:37.793Z,1012.12
2022-08-24T10:27:37.785Z,1012.09
2022-08-24T10:28:37.776Z,1012.10
2022-08-24T10:29:37.778Z,1012.10
2022-08-24T10:30:37.786Z,1012.10
2022-08-24T10:31:37.808Z,1012.04
2022-08-24T10:32:37.754Z,1012.04
2022-08-24T10:33:37.754Z,1012.02
2022-08-24T10:34:37.748Z,1012.03
2022-08-24T10:35:37.740Z,1012.03
2022-08-24T10:36:37.731Z,1012.04
2022-08-24T10:37:37.732Z,1012.06
2022-08-24T10:38:37.724Z,1012.02
2022-08-24T10:39:37.723Z,1012.05
2022-08-24T10:40:37.773Z,1012.08
2022-08-24T10:41:38.805Z,1012.06
2022-08-24T10:42:37.700Z,1012.09
2022-08-24T10:43:37.703Z,1012.06
2022-08-24T10:44:37.693Z,1012.04
2022-08-24T10:45:37.737Z,1012.04
2022-08-24T10:46:37.680Z,1012.00
2022-08-24T10:47:37.686Z,1012.05
2022-08-24T10:48:37.671Z,1012.03
2022-08-24T10:49:37.676Z,1012.07
2022-08-24T10:50:37.660Z,1012.01
2022-08-24T10:51:37.661Z,1012.04
2022-08-24T10:52:37.654Z,1011.98
2022-08-24T10:53:37.645Z,1012.02
2022-08-24T10:54:37.645Z,1012.00
2022-08-24T10:55:37.635Z,1012.00
2022-08-24T10:56:37.628Z,1011.98
2022-08-24T10:57:37.640Z,1011.98
2022-08-24T10:58:37.621Z,1011.95
2022-08-24T10:59:37.615Z,1011.92
2022-08-24T11:00:37.615Z,1011.90
2022-08-24T11:01:37.707Z,1011.93
2022-08-24T11:02:37.650Z,1011.94
2022-08-24T11:03:37.597Z,1011.94
2022-08-24T11:04:37.591Z,1011.94
2022-08-24T11:05:37.592Z,1011.98
2022-08-24T11:06:37.582Z,1011.97
2022-08-24T11:07:37.576Z,1011.93
2022-08-24T11:08:37.572Z,1011.97
2022-08-24T11:09:37.592Z,1011.97
2022-08-24T11:10:37.573Z,1011.97
2022-08-24T11:11:40.458Z,1011.97
2022-08-24T11:12:37.556Z,1011.97
2022-08-24T11:13:37.546Z,1011.96
2022-08-24T11:14:37.544Z,1011.92
2022-08-24T11:15:37.546Z,1011.92
2022-08-24T11:16:37.576Z,1011.90
2022-08-24T11:17:37.533Z,1011.88
2022-08-24T11:18:37.535Z,1011.87
2022-08-24T11:19:37.645Z,1011.88
2022-08-24T11:20:37.517Z,1011.92
2022-08-24T11:21:37.512Z,1011.85
2022-08-24T11:22:37.505Z,1011.91
2022-08-24T11:23:37.504Z,1011.83
2022-08-24T11:24:37.497Z,1011.84
2022-08-24T11:25:37.496Z,1011.80
2022-08-24T11:26:37.487Z,1011.81
2022-08-24T11:27:37.485Z,1011.82
2022-08-24T11:28:37.483Z,1011.84
2022-08-24T11:29:37.481Z,1011.83
2022-08-24T11:30:37.469Z,1011.85
2022-08-24T11:31:37.479Z,1011.84
2022-08-24T11:32:37.455Z,1011.85
2022-08-24T11:33:37.452Z,1011.87
2022-08-24T11:34:37.446Z,1011.85
2022-08-24T11:35:37.446Z,1011.85
2022-08-24T11:36:37.442Z,1011.81
2022-08-24T11:37:37.433Z,1011.82
2022-08-24T11:38:37.427Z,1011.83
2022-08-24T11:39:37.421Z,1011.83
2022-08-24T11:40:37.419Z,1011.82
2022-08-24T11:41:37.414Z,1011.80
2022-08-24T11:42:37.411Z,1011.80
2022-08-24T11:43:37.403Z,1011.80
2022-08-24T11:44:37.397Z,1011.77
2022-08-24T11:45:37.394Z,1011.79
2022-08-24T11:46:37.448Z,1011.80
2022-08-24T11:47:37.386Z,1011.82
2022-08-24T11:48:37.487Z,1011.81
2022-08-24T11:49:37.378Z,1011.81
2022-08-24T11:50:37.372Z,1011.79
2022-08-24T11:51:37.363Z,1011.80
2022-08-24T11:52:37.359Z,1011.78
2022-08-24T11:54:37.348Z,1011.81
2022-08-24T11:55:46.899Z,1011.80
2022-08-24T11:56:37.340Z,1011.77
2022-08-24T11:57:37.334Z,1011.71
2022-08-24T11:58:37.327Z,1011.75
2022-08-24T11:59:37.325Z,1011.76
2022-08-24T12:00:37.326Z,1011.71
2022-08-24T12:01:44.476Z,1011.71
2022-08-24T12:02:37.477Z,1011.74
2022-08-24T12:03:37.304Z,1011.77
2022-08-24T12:04:37.295Z,1011.75
2022-08-24T12:05:37.301Z,1011.74
2022-08-24T12:06:37.291Z,1011.76